Time;durP1;ratioP1;P1;durP2;ratioP2;P2;SDS_P1;SDS_P2;PMS_P1;PMS_P2;Temp;Humidity;BMP_temperature;BMP_pressure;BME280_temperature;BME280_humidity;BME280_pressure;Samples;Min_cycle;Max_cycle;Signal;HPM_P1;HPM_P2
2022/08/16 00:01:13;;;;;;;14.93;8.70;;;22.60;99.90;;;;;;5035078;28;20072;-68
2022/08/16 00:03:39;;;;;;;12.50;8.67;;;22.60;99.90;;;;;;5035681;28;20045;-68
2022/08/16 00:06:05;;;;;;;22.20;10.27;;;22.60;99.90;;;;;;5034781;28;20056;-68
2022/08/16 00:08:30;;;;;;;11.00;9.47;;;22.60;99.90;;;;;;5034818;28;20059;-68
2022/08/16 00:10:56;;;;;;;12.93;9.10;;;22.60;99.90;;;;;;5035210;28;20071;-68
2022/08/16 00:13:22;;;;;;;13.43;9.10;;;22.60;99.90;;;;;;5034353;28;20128;-68
2022/08/16 00:15:48;;;;;;;15.60;8.73;;;22.60;99.90;;;;;;5034647;28;20103;-68
2022/08/16 00:18:16;;;;;;;12.73;8.77;;;22.60;99.90;;;;;;5035082;28;20046;-68
2022/08/16 00:20:44;;;;;;;15.33;9.27;;;22.70;99.90;;;;;;5017655;28;20099;-68
2022/08/16 00:23:11;;;;;;;12.13;9.50;;;22.70;99.90;;;;;;5035202;28;20077;-68
2022/08/16 00:25:37;;;;;;;12.23;9.90;;;22.70;99.90;;;;;;5035239;28;20386;-68
2022/08/16 00:28:05;;;;;;;11.07;9.03;;;22.70;99.90;;;;;;5034566;28;20049;-68
2022/08/16 00:30:31;;;;;;;12.07;9.73;;;22.60;99.90;;;;;;5034334;28;20046;-67
2022/08/16 00:32:58;;;;;;;12.43;9.80;;;22.60;99.90;;;;;;5034571;28;20096;-68
2022/08/16 00:35:28;;;;;;;11.50;9.87;;;22.60;99.90;;;;;;5034246;28;20397;-68
2022/08/16 00:37:57;;;;;;;14.90;10.70;;;22.60;99.90;;;;;;5034316;28;20049;-68
2022/08/16 00:40:31;;;;;;;13.60;10.60;;;22.60;99.90;;;;;;5016479;28;20124;-68
2022/08/16 00:42:57;;;;;;;13.65;11.35;;;22.60;99.90;;;;;;5034689;28;20045;-68
2022/08/16 00:45:41;;;;;;;14.77;11.60;;;22.60;99.90;;;;;;5016553;28;20137;-68
2022/08/16 00:48:12;;;;;;;13.85;11.65;;;22.50;99.90;;;;;;5034510;28;20065;-68
2022/08/16 00:50:39;;;;;;;16.37;11.90;;;22.50;99.90;;;;;;5033980;28;20037;-68
2022/08/16 00:53:08;;;;;;;12.97;11.67;;;22.50;99.90;;;;;;5033850;28;20049;-68
2022/08/16 00:55:37;;;;;;;15.13;12.37;;;22.50;99.90;;;;;;5033880;28;20056;-69
2022/08/16 00:58:04;;;;;;;13.90;11.90;;;22.50;99.90;;;;;;5033853;28;20132;-68
2022/08/16 01:00:31;;;;;;;14.80;12.43;;;22.50;99.90;;;;;;5016088;28;20080;-68
2022/08/16 01:03:02;;;;;;;14.77;12.30;;;22.50;99.90;;;;;;5034580;28;20049;-68
2022/08/16 01:05:28;;;;;;;18.13;13.43;;;22.40;99.90;;;;;;5033766;28;20053;-68
2022/08/16 01:07:56;;;;;;;15.40;12.67;;;22.40;99.90;;;;;;5033754;28;20081;-68
2022/08/16 01:10:24;;;;;;;15.93;13.00;;;22.40;99.90;;;;;;5034177;28;20038;-68
2022/08/16 01:12:50;;;;;;;16.70;14.50;;;22.30;99.90;;;;;;5033590;28;20058;-68
2022/08/16 01:15:16;;;;;;;15.83;14.23;;;22.30;99.90;;;;;;5016522;28;20038;-68
2022/08/16 01:17:45;;;;;;;15.23;13.70;;;22.30;99.90;;;;;;5033879;28;20053;-68
2022/08/16 01:20:13;;;;;;;16.17;14.53;;;22.30;99.90;;;;;;5033398;28;20469;-68
2022/08/16 01:23:06;;;;;;;15.73;14.03;;;22.30;99.90;;;;;;5033547;28;20056;-68
2022/08/16 01:25:41;;;;;;;16.10;14.33;;;22.30;99.90;;;;;;5016398;28;20362;-68
2022/08/16 01:28:14;;;;;;;17.03;13.87;;;22.30;99.90;;;;;;5016653;28;20122;-68
2022/08/16 01:30:43;;;;;;;19.13;14.63;;;22.30;99.90;;;;;;5033493;28;20505;-67
2022/08/16 01:33:09;;;;;;;19.17;16.33;;;22.30;99.90;;;;;;5033384;28;20080;-67
2022/08/16 01:35:43;;;;;;;15.47;13.57;;;22.30;99.90;;;;;;5035143;28;20444;-67
2022/08/16 01:38:21;;;;;;;18.27;15.68;;;22.30;99.90;;;;;;5040579;28;20053;-67
2022/08/16 01:40:50;;;;;;;18.07;14.60;;;22.30;99.90;;;;;;5039870;28;20053;-67
2022/08/16 01:43:15;;;;;;;19.60;14.73;;;22.20;99.90;;;;;;5039925;28;20049;-67
2022/08/16 01:45:42;;;;;;;16.80;15.00;;;22.20;99.90;;;;;;5039538;28;20065;-67
2022/08/16 01:48:08;;;;;;;17.57;15.30;;;22.20;99.90;;;;;;5039871;28;20053;-67
2022/08/16 01:50:35;;;;;;;18.03;15.40;;;22.20;99.90;;;;;;5040410;28;20042;-67
2022/08/16 01:53:01;;;;;;;18.87;16.90;;;22.10;99.90;;;;;;5039786;28;20049;-67
2022/08/16 01:55:27;;;;;;;19.67;16.90;;;22.10;99.90;;;;;;5039516;28;20378;-67
2022/08/16 01:57:52;;;;;;;16.57;15.03;;;22.10;99.90;;;;;;5039834;28;20048;-68
2022/08/16 02:00:18;;;;;;;17.40;15.63;;;22.00;99.90;;;;;;5039626;28;20089;-68
2022/08/16 02:02:44;;;;;;;16.60;15.10;;;22.00;99.90;;;;;;5039760;28;20128;-67
2022/08/16 02:05:11;;;;;;;17.97;16.37;;;22.00;99.90;;;;;;5040279;28;20180;-67
2022/08/16 02:07:37;;;;;;;17.57;15.77;;;22.00;99.90;;;;;;5039429;28;20547;-68
2022/08/16 02:10:06;;;;;;;17.50;15.60;;;22.00;99.90;;;;;;5039691;28;20184;-67
2022/08/16 02:12:32;;;;;;;17.37;15.63;;;22.00;99.90;;;;;;5039672;28;20053;-68
2022/08/16 02:14:58;;;;;;;23.60;17.53;;;22.00;99.90;;;;;;5039615;28;20444;-67
2022/08/16 02:17:23;;;;;;;16.50;14.80;;;21.90;99.90;;;;;;5039577;28;20045;-67
2022/08/16 02:19:50;;;;;;;17.37;15.53;;;21.90;99.90;;;;;;5039555;28;20037;-67
2022/08/16 02:22:21;;;;;;;16.63;14.93;;;21.90;99.90;;;;;;5039541;28;20504;-68
2022/08/16 02:24:48;;;;;;;18.07;16.20;;;21.90;99.90;;;;;;5040153;28;20041;-67
2022/08/16 02:27:15;;;;;;;18.73;16.70;;;21.80;99.90;;;;;;5039522;28;20118;-67
2022/08/16 02:29:41;;;;;;;19.37;16.50;;;21.80;99.90;;;;;;5021866;28;20081;-67
2022/08/16 02:32:11;;;;;;;17.00;15.23;;;21.80;99.90;;;;;;5021591;28;20478;-67
2022/08/16 02:34:37;;;;;;;19.27;15.90;;;21.70;99.90;;;;;;5040216;28;20084;-67
2022/08/16 02:37:03;;;;;;;15.73;14.03;;;21.70;99.90;;;;;;5039456;28;20450;-67
2022/08/16 02:39:29;;;;;;;17.60;14.97;;;21.70;99.90;;;;;;5039295;28;20122;-68
2022/08/16 02:41:55;;;;;;;20.30;16.30;;;21.60;99.90;;;;;;5040206;28;20049;-67
2022/08/16 02:44:22;;;;;;;18.77;16.90;;;21.60;99.90;;;;;;5039321;28;20049;-68
2022/08/16 02:46:48;;;;;;;19.77;16.77;;;21.50;99.90;;;;;;5038780;28;20108;-67
2022/08/16 02:49:14;;;;;;;18.83;15.47;;;21.50;99.90;;;;;;5035693;28;20046;-67
2022/08/16 02:51:41;;;;;;;16.40;14.67;;;21.50;99.90;;;;;;5036167;28;20045;-67
2022/08/16 02:54:08;;;;;;;17.83;15.93;;;21.50;99.90;;;;;;5018649;28;20513;-67
2022/08/16 02:56:34;;;;;;;17.67;15.73;;;21.40;99.90;;;;;;5036117;28;20045;-67
2022/08/16 02:59:00;;;;;;;17.27;15.33;;;21.40;99.90;;;;;;5035990;28;20473;-67
2022/08/16 03:01:30;;;;;;;17.53;15.83;;;21.40;99.90;;;;;;5036813;28;20041;-68
2022/08/16 03:03:58;;;;;;;20.83;17.43;;;21.30;99.90;;;;;;5035976;28;20049;-67
2022/08/16 03:06:24;;;;;;;18.77;16.77;;;21.30;99.90;;;;;;5036414;28;20128;-68
2022/08/16 03:08:50;;;;;;;17.63;15.90;;;21.30;99.90;;;;;;5035959;28;20199;-67
2022/08/16 03:11:17;;;;;;;20.90;16.37;;;21.20;99.90;;;;;;5035875;28;20104;-67
2022/08/16 03:13:44;;;;;;;19.33;17.23;;;21.30;99.90;;;;;;5035766;28;20091;-67
2022/08/16 03:16:11;;;;;;;18.93;16.00;;;21.20;99.90;;;;;;5018260;28;20049;-67
2022/08/16 03:18:37;;;;;;;17.70;15.90;;;21.10;99.90;;;;;;5035755;28;20053;-68
2022/08/16 03:21:03;;;;;;;19.37;17.47;;;21.10;99.90;;;;;;5035620;28;20060;-67
2022/08/16 03:23:29;;;;;;;19.27;17.30;;;21.00;99.90;;;;;;5018370;28;20049;-67
2022/08/16 03:25:54;;;;;;;19.73;17.77;;;21.00;99.90;;;;;;5035509;28;20047;-67
2022/08/16 03:28:20;;;;;;;20.63;18.20;;;20.90;99.90;;;;;;5017924;28;20087;-67
2022/08/16 03:30:46;;;;;;;18.43;16.53;;;20.90;99.90;;;;;;5035133;28;20096;-67
2022/08/16 03:33:12;;;;;;;18.63;16.73;;;20.90;99.90;;;;;;5035478;28;20051;-67
2022/08/16 03:35:40;;;;;;;18.93;16.93;;;20.80;99.90;;;;;;5035367;28;20056;-67
2022/08/16 03:38:10;;;;;;;19.57;17.27;;;20.80;99.90;;;;;;5035384;28;20045;-67
2022/08/16 03:40:36;;;;;;;18.53;16.73;;;20.70;99.90;;;;;;5035303;28;20084;-68
2022/08/16 03:43:09;;;;;;;19.33;17.43;;;20.80;99.90;;;;;;5035290;28;20550;-67
2022/08/16 03:45:37;;;;;;;19.23;17.17;;;20.80;99.90;;;;;;5035055;28;20061;-67
2022/08/16 03:48:05;;;;;;;19.80;18.00;;;20.70;99.90;;;;;;5034874;28;20500;-67
2022/08/16 03:50:31;;;;;;;20.13;18.33;;;20.70;99.90;;;;;;5035101;28;20515;-67
2022/08/16 03:52:57;;;;;;;19.87;17.87;;;20.70;99.90;;;;;;5035082;28;20088;-67
2022/08/16 03:55:23;;;;;;;20.70;18.30;;;20.70;99.90;;;;;;5035819;28;20049;-67
2022/08/16 03:57:52;;;;;;;20.67;18.67;;;20.60;99.90;;;;;;5034962;28;20445;-67
2022/08/16 04:00:21;;;;;;;20.07;18.10;;;20.60;99.90;;;;;;5034503;28;20056;-67
2022/08/16 04:02:47;;;;;;;20.63;18.73;;;20.60;99.90;;;;;;5034899;28;20045;-67
2022/08/16 04:05:14;;;;;;;19.80;17.90;;;20.50;99.90;;;;;;5034804;28;20045;-67
2022/08/16 04:07:40;;;;;;;21.33;19.13;;;20.60;99.90;;;;;;5035486;28;20049;-67
2022/08/16 04:10:08;;;;;;;19.53;17.73;;;20.50;99.90;;;;;;5034671;28;20052;-67
2022/08/16 04:12:34;;;;;;;19.80;17.53;;;20.60;99.90;;;;;;5035423;28;20056;-68
2022/08/16 04:15:01;;;;;;;21.17;18.67;;;20.50;99.90;;;;;;5035368;28;20045;-67
2022/08/16 04:17:28;;;;;;;19.90;17.90;;;20.50;99.90;;;;;;5034517;28;20056;-67
2022/08/16 04:19:54;;;;;;;19.80;17.97;;;20.50;99.90;;;;;;5034530;28;20104;-67
2022/08/16 04:22:21;;;;;;;20.53;18.07;;;20.50;99.90;;;;;;5034736;28;20052;-67
2022/08/16 04:24:47;;;;;;;19.63;17.77;;;20.50;99.90;;;;;;5034425;28;20103;-67
2022/08/16 04:27:13;;;;;;;20.90;17.70;;;20.50;99.90;;;;;;5035162;28;20045;-67
2022/08/16 04:29:38;;;;;;;20.57;18.53;;;20.50;99.90;;;;;;5034290;28;20056;-67
2022/08/16 04:32:04;;;;;;;19.90;17.83;;;20.50;99.90;;;;;;5034555;28;20054;-67
2022/08/16 04:34:32;;;;;;;20.77;18.87;;;20.50;99.90;;;;;;5034272;28;20045;-68
2022/08/16 04:36:58;;;;;;;19.63;17.70;;;20.50;99.90;;;;;;5034212;28;20053;-67
2022/08/16 04:39:25;;;;;;;19.70;17.80;;;20.40;99.90;;;;;;5034433;28;20400;-67
2022/08/16 04:41:51;;;;;;;20.80;18.93;;;20.40;99.90;;;;;;5034028;28;20053;-67
2022/08/16 04:44:17;;;;;;;20.27;18.27;;;20.40;99.90;;;;;;5017204;28;20527;-67
2022/08/16 04:46:43;;;;;;;20.20;17.67;;;20.40;99.90;;;;;;5034630;28;20053;-67
2022/08/16 04:49:10;;;;;;;19.97;18.00;;;20.40;99.90;;;;;;5034264;28;20052;-67
2022/08/16 04:51:37;;;;;;;20.87;18.83;;;20.40;99.90;;;;;;5016446;28;20056;-67
2022/08/16 04:54:03;;;;;;;19.23;17.33;;;20.40;99.90;;;;;;5017044;28;20412;-67
2022/08/16 04:56:28;;;;;;;19.53;17.47;;;20.40;99.90;;;;;;5033844;28;20056;-67
2022/08/16 04:58:57;;;;;;;19.83;18.00;;;20.40;99.90;;;;;;5033917;28;20049;-67
2022/08/16 05:01:23;;;;;;;19.20;17.07;;;20.50;99.90;;;;;;5033752;28;20531;-67
2022/08/16 05:03:49;;;;;;;20.43;18.23;;;20.50;99.90;;;;;;5033767;28;20049;-67
2022/08/16 05:06:15;;;;;;;20.73;18.73;;;20.50;99.90;;;;;;5034277;28;20129;-67
2022/08/16 05:08:40;;;;;;;19.87;17.97;;;20.60;99.90;;;;;;5033723;28;20053;-67
2022/08/16 05:11:08;;;;;;;19.40;17.40;;;20.60;99.90;;;;;;5033825;28;20084;-67
2022/08/16 05:13:36;;;;;;;19.67;17.67;;;20.70;99.90;;;;;;5033662;28;20452;-68
2022/08/16 05:16:02;;;;;;;20.50;18.60;;;20.70;99.90;;;;;;5033838;28;20076;-67
2022/08/16 05:18:28;;;;;;;19.57;17.80;;;20.70;99.90;;;;;;5016152;28;20049;-67
2022/08/16 05:20:54;;;;;;;19.97;17.53;;;20.70;99.90;;;;;;5033807;28;20038;-67
2022/08/16 05:23:20;;;;;;;20.20;18.10;;;20.70;99.90;;;;;;5033599;28;20099;-67
2022/08/16 05:25:46;;;;;;;20.10;17.87;;;20.70;99.90;;;;;;5033552;28;20049;-67
2022/08/16 05:28:11;;;;;;;20.73;18.53;;;20.80;99.90;;;;;;5033730;28;20076;-67
2022/08/16 05:30:37;;;;;;;21.57;19.33;;;20.80;99.90;;;;;;5033491;28;20136;-68
2022/08/16 05:33:04;;;;;;;19.53;17.63;;;20.90;99.90;;;;;;5034251;28;20060;-68
2022/08/16 05:35:30;;;;;;;20.53;18.53;;;20.90;99.90;;;;;;5033410;28;20045;-66
2022/08/16 05:37:56;;;;;;;20.70;18.70;;;21.00;99.90;;;;;;5033727;28;20180;-67
2022/08/16 05:40:21;;;;;;;21.20;18.57;;;21.00;99.90;;;;;;5033833;28;20041;-67
2022/08/16 05:42:47;;;;;;;20.37;18.17;;;21.10;99.90;;;;;;5033894;28;20444;-67
2022/08/16 05:45:15;;;;;;;20.90;18.70;;;21.10;99.90;;;;;;5033055;28;20061;-67
2022/08/16 05:47:41;;;;;;;20.00;17.97;;;21.20;99.90;;;;;;5033300;28;20137;-68
2022/08/16 05:50:07;;;;;;;20.20;18.17;;;21.20;99.90;;;;;;5033357;28;20120;-67
2022/08/16 05:52:32;;;;;;;20.30;18.20;;;21.30;99.90;;;;;;5033608;28;20132;-67
2022/08/16 05:54:58;;;;;;;20.43;18.37;;;21.50;99.90;;;;;;5033843;28;20089;-68
2022/08/16 05:57:25;;;;;;;18.53;16.73;;;22.00;99.90;;;;;;5033286;28;20054;-69
2022/08/16 05:59:50;;;;;;;17.87;16.17;;;22.80;99.90;;;;;;5033616;28;20046;-69
2022/08/16 06:02:17;;;;;;;19.33;17.50;;;23.60;99.90;;;;;;5033471;28;20140;-67
2022/08/16 06:04:43;;;;;;;19.00;17.00;;;24.30;99.90;;;;;;5033482;28;20065;-68
2022/08/16 06:07:09;;;;;;;19.70;17.60;;;24.90;99.90;;;;;;5033663;28;20373;-67
2022/08/16 06:09:36;;;;;;;17.80;16.03;;;25.40;99.90;;;;;;5033395;28;20133;-67
2022/08/16 06:12:02;;;;;;;16.03;14.43;;;26.00;99.90;;;;;;5033046;28;20049;-67
2022/08/16 06:14:29;;;;;;;18.67;16.83;;;26.60;99.90;;;;;;5033023;28;20144;-67
2022/08/16 06:16:56;;;;;;;17.27;15.47;;;27.00;98.50;;;;;;5033517;28;20053;-67
2022/08/16 06:19:22;;;;;;;19.07;15.13;;;27.50;96.90;;;;;;5032912;28;20088;-67
2022/08/16 06:21:48;;;;;;;18.33;15.53;;;27.90;94.70;;;;;;5033989;28;20057;-68
2022/08/16 06:24:14;;;;;;;17.30;15.60;;;28.40;92.80;;;;;;5036806;28;20041;-68
2022/08/16 06:26:40;;;;;;;16.83;15.07;;;28.70;90.70;;;;;;5036735;28;20187;-67
2022/08/16 06:29:06;;;;;;;16.80;15.13;;;29.20;87.40;;;;;;5019355;28;20068;-67
2022/08/16 06:31:31;;;;;;;17.23;15.27;;;29.40;84.40;;;;;;5036611;28;20493;-67
2022/08/16 06:33:57;;;;;;;17.52;15.73;;;29.70;81.20;;;;;;5036612;28;20056;-68
2022/08/16 06:36:23;;;;;;;20.73;16.52;;;30.00;77.60;;;;;;5036563;28;20056;-68
2022/08/16 06:38:52;;;;;;;15.38;13.18;;;30.30;72.40;;;;;;5036505;28;20045;-68
2022/08/16 06:41:18;;;;;;;18.08;14.82;;;30.40;71.30;;;;;;5036375;28;20072;-68
2022/08/16 06:43:44;;;;;;;17.55;15.75;;;30.80;71.20;;;;;;5036460;28;20054;-68
2022/08/16 06:46:41;;;;;;;18.20;16.25;;;31.30;68.40;;;;;;5018531;28;20117;-68
2022/08/16 06:49:10;;;;;;;18.75;15.93;;;31.30;62.50;;;;;;5018112;28;20485;-68
2022/08/16 06:51:38;;;;;;;17.52;15.43;;;31.30;65.70;;;;;;5036267;28;20046;-68
2022/08/16 06:54:04;;;;;;;17.92;16.17;;;31.60;64.80;;;;;;5036133;28;20405;-68
2022/08/16 06:56:30;;;;;;;20.10;16.30;;;31.70;63.90;;;;;;5036772;28;20084;-68
2022/08/16 06:58:56;;;;;;;17.25;15.48;;;;;;;;;;5036117;28;20077;-68
2022/08/16 07:01:22;;;;;;;19.35;16.70;;;32.50;58.60;;;;;;5035985;28;20042;-68
2022/08/16 07:03:49;;;;;;;16.67;15.02;;;32.80;60.10;;;;;;5018586;28;20136;-68
2022/08/16 07:06:17;;;;;;;16.92;15.23;;;33.00;59.20;;;;;;5036547;28;20055;-68
2022/08/16 07:08:45;;;;;;;20.67;14.75;;;33.10;58.70;;;;;;5035994;28;20041;-68
2022/08/16 07:11:11;;;;;;;17.60;15.93;;;;;;;;;;5035875;28;20045;-68
2022/08/16 07:13:37;;;;;;;18.25;16.42;;;33.50;56.80;;;;;;5036579;28;20118;-68
2022/08/16 07:16:04;;;;;;;17.55;15.77;;;33.50;57.00;;;;;;5035655;28;20042;-68
2022/08/16 07:18:30;;;;;;;17.60;15.85;;;33.80;56.40;;;;;;5035812;28;20401;-68
2022/08/16 07:20:57;;;;;;;17.63;15.93;;;33.90;55.90;;;;;;5018643;28;20038;-68
2022/08/16 07:23:24;;;;;;;19.65;17.85;;;34.00;56.10;;;;;;5035649;28;20096;-68
2022/08/16 07:25:50;;;;;;;18.80;16.83;;;34.10;55.40;;;;;;5017927;28;20045;-68
2022/08/16 07:28:17;;;;;;;19.15;17.10;;;34.30;55.00;;;;;;5035627;28;20099;-68
2022/08/16 07:30:44;;;;;;;18.80;17.05;;;34.40;54.70;;;;;;5036094;28;20124;-68
2022/08/16 07:33:10;;;;;;;19.35;17.60;;;34.50;54.00;;;;;;5034870;28;20056;-68
2022/08/16 07:35:37;;;;;;;20.50;17.30;;;;;;;;;;5035406;28;20053;-68
2022/08/16 07:38:04;;;;;;;19.05;17.05;;;34.80;52.50;;;;;;5035427;28;20081;-68
2022/08/16 07:40:30;;;;;;;18.75;17.00;;;34.90;53.70;;;;;;5036097;28;20172;-68
2022/08/16 07:42:56;;;;;;;18.77;16.75;;;35.20;52.70;;;;;;5035833;28;20053;-68
2022/08/16 07:45:22;;;;;;;18.90;17.05;;;35.30;52.00;;;;;;5035457;28;20057;-68
2022/08/16 07:47:48;;;;;;;19.23;17.33;;;35.30;51.50;;;;;;5035265;28;20112;-68
2022/08/16 07:50:15;;;;;;;18.05;16.25;;;35.40;51.60;;;;;;5035134;28;20045;-68
2022/08/16 07:52:41;;;;;;;19.58;17.50;;;;;;;;;;5035681;28;20049;-68
2022/08/16 07:55:09;;;;;;;17.83;16.17;;;35.50;50.30;;;;;;5017616;28;20497;-68
2022/08/16 07:57:35;;;;;;;17.23;15.65;;;35.60;51.10;;;;;;5017378;28;20135;-68
2022/08/16 08:00:01;;;;;;;17.30;15.50;;;35.70;50.50;;;;;;5034877;28;20081;-68
2022/08/16 08:02:27;;;;;;;18.27;15.85;;;35.80;50.50;;;;;;5035792;28;20064;-68
2022/08/16 08:04:54;;;;;;;17.67;15.85;;;35.80;50.50;;;;;;5035536;28;20508;-68
2022/08/16 08:07:21;;;;;;;19.75;16.92;;;35.90;50.50;;;;;;5034846;28;20095;-68
2022/08/16 08:09:46;;;;;;;18.20;16.33;;;35.60;51.10;;;;;;5034925;28;20037;-68
2022/08/16 08:12:13;;;;;;;18.58;16.05;;;35.10;50.80;;;;;;5035067;28;20116;-68
2022/08/16 08:14:38;;;;;;;17.45;15.80;;;34.30;51.80;;;;;;5017033;28;20049;-68
2022/08/16 08:17:06;;;;;;;19.85;16.30;;;33.70;52.20;;;;;;5035205;28;20050;-68
2022/08/16 08:19:34;;;;;;;21.25;16.55;;;33.10;53.40;;;;;;5034555;28;20088;-68
2022/08/16 08:22:00;;;;;;;17.73;15.85;;;32.50;55.20;;;;;;5034893;28;20099;-68
2022/08/16 08:24:26;;;;;;;18.45;15.38;;;32.30;56.20;;;;;;5017206;28;20053;-68
2022/08/16 08:26:53;;;;;;;18.23;16.35;;;32.00;56.60;;;;;;5034522;28;20056;-68
2022/08/16 08:29:19;;;;;;;16.30;13.90;;;31.70;56.90;;;;;;5034924;28;20396;-68
2022/08/16 08:31:45;;;;;;;14.05;12.55;;;31.20;57.70;;;;;;5034488;28;20050;-68
2022/08/16 08:34:11;;;;;;;14.27;12.77;;;31.10;58.00;;;;;;5017781;28;20137;-68
2022/08/16 08:36:36;;;;;;;15.15;11.88;;;30.90;57.70;;;;;;5034325;28;20049;-68
2022/08/16 08:39:04;;;;;;;15.52;12.68;;;30.70;58.10;;;;;;5034282;28;20083;-68
2022/08/16 08:41:30;;;;;;;13.93;12.52;;;30.60;58.60;;;;;;5016785;28;20041;-68
2022/08/16 08:43:56;;;;;;;14.85;13.40;;;30.40;58.90;;;;;;5034195;28;20046;-68
2022/08/16 08:46:24;;;;;;;15.00;12.95;;;30.30;59.60;;;;;;5032968;28;20061;-67
2022/08/16 08:48:52;;;;;;;17.80;14.18;;;30.20;60.00;;;;;;5034033;28;20544;-68
2022/08/16 08:51:18;;;;;;;18.42;15.00;;;30.00;60.80;;;;;;5034061;28;20048;-67
2022/08/16 08:53:44;;;;;;;17.33;15.50;;;29.90;61.20;;;;;;5034624;28;20041;-68
2022/08/16 08:56:12;;;;;;;18.02;14.73;;;29.70;62.00;;;;;;5034517;28;20053;-68
2022/08/16 08:58:39;;;;;;;17.73;15.13;;;29.50;62.50;;;;;;5016563;28;20088;-68
2022/08/16 09:01:06;;;;;;;19.27;15.35;;;29.40;62.90;;;;;;5017089;28;20049;-68
2022/08/16 09:03:36;;;;;;;16.38;14.60;;;29.20;63.60;;;;;;5033875;28;20049;-67
2022/08/16 09:06:04;;;;;;;17.13;14.75;;;29.20;64.00;;;;;;5034376;28;20428;-68
2022/08/16 09:08:31;;;;;;;15.68;13.60;;;29.10;64.40;;;;;;5016217;28;20120;-68
2022/08/16 09:10:58;;;;;;;15.27;13.02;;;29.00;65.40;;;;;;5016234;28;20068;-67
2022/08/16 09:13:25;;;;;;;15.88;14.07;;;29.00;66.50;;;;;;5033710;28;20417;-68
2022/08/16 09:15:52;;;;;;;18.50;13.63;;;29.00;67.10;;;;;;5017066;28;20128;-68
2022/08/16 09:18:18;;;;;;;14.57;13.02;;;28.90;67.20;;;;;;5033661;28;20041;-67
2022/08/16 09:20:45;;;;;;;15.73;13.65;;;28.80;67.40;;;;;;5033615;28;20118;-68
2022/08/16 09:23:12;;;;;;;17.70;14.23;;;28.80;67.40;;;;;;5033596;28;20045;-68
2022/08/16 09:25:38;;;;;;;20.55;13.02;;;28.70;67.30;;;;;;5033580;28;20084;-68
2022/08/16 09:28:04;;;;;;;14.73;12.18;;;28.70;67.70;;;;;;5033131;28;20483;-68
2022/08/16 09:30:33;;;;;;;19.90;12.88;;;28.60;68.20;;;;;;5033498;28;20124;-67
2022/08/16 09:32:58;;;;;;;15.52;12.48;;;28.60;69.30;;;;;;5033772;28;20512;-67
2022/08/16 09:35:25;;;;;;;15.88;11.32;;;28.60;69.10;;;;;;5016097;28;20053;-67
2022/08/16 09:37:51;;;;;;;15.02;13.27;;;28.60;69.40;;;;;;5033488;28;20056;-68
2022/08/16 09:40:17;;;;;;;15.38;12.80;;;28.50;69.70;;;;;;5033930;28;20046;-67
2022/08/16 09:42:43;;;;;;;16.92;12.68;;;28.50;69.80;;;;;;5033425;28;20115;-67
2022/08/16 09:45:09;;;;;;;15.45;12.68;;;28.50;69.90;;;;;;5033268;28;20057;-67
2022/08/16 09:47:38;;;;;;;14.82;10.15;;;28.40;70.40;;;;;;5033958;28;20121;-67
2022/08/16 09:50:14;;;;;;;13.93;11.32;;;28.40;71.30;;;;;;5033366;28;20044;-67
2022/08/16 09:52:39;;;;;;;13.00;10.88;;;28.40;70.70;;;;;;5033954;28;20085;-67
2022/08/16 09:55:08;;;;;;;13.85;11.23;;;28.40;70.90;;;;;;5033037;28;20076;-67
2022/08/16 09:57:35;;;;;;;16.45;12.23;;;28.40;71.50;;;;;;5036396;28;20084;-67
2022/08/16 10:00:03;;;;;;;15.65;11.07;;;28.50;71.80;;;;;;5037189;28;20042;-67
2022/08/16 10:02:29;;;;;;;15.18;10.43;;;28.40;71.30;;;;;;5036891;28;20527;-67
2022/08/16 10:04:57;;;;;;;15.05;10.77;;;28.40;71.70;;;;;;5037207;28;20053;-66
2022/08/16 10:07:28;;;;;;;13.95;10.13;;;28.40;71.80;;;;;;5037124;28;20096;-67
2022/08/16 10:09:54;;;;;;;13.88;10.85;;;28.40;72.10;;;;;;5037653;28;20045;-67
2022/08/16 10:15:15;;;;;;;11.40;8.93;;;28.30;70.60;;;;;;5005908;28;20136;-67
2022/08/16 10:17:41;;;;;;;16.33;9.60;;;28.30;70.90;;;;;;5037671;28;20045;-66
2022/08/16 10:20:12;;;;;;;14.93;10.45;;;28.30;70.90;;;;;;5037346;28;20045;-67
2022/08/16 10:22:37;;;;;;;17.38;9.40;;;28.30;71.50;;;;;;5037111;28;20412;-67
2022/08/16 10:25:05;;;;;;;13.77;8.70;;;28.30;71.00;;;;;;5036707;28;20070;-67
2022/08/16 10:27:31;;;;;;;11.57;9.75;;;28.30;70.60;;;;;;5037516;28;20045;-67
2022/08/16 10:29:57;;;;;;;15.68;10.27;;;28.30;69.80;;;;;;5036715;28;20053;-67
2022/08/16 10:32:22;;;;;;;12.55;8.13;;;28.20;70.00;;;;;;5036895;28;20049;-67
2022/08/16 10:34:48;;;;;;;11.27;7.90;;;28.20;70.30;;;;;;5037202;28;20060;-68
2022/08/16 10:37:14;;;;;;;12.82;9.52;;;28.20;69.60;;;;;;5036786;28;20045;-67
2022/08/16 10:39:39;;;;;;;13.52;10.45;;;28.20;69.50;;;;;;5019605;28;20045;-67
2022/08/16 10:42:05;;;;;;;15.55;10.45;;;28.20;70.00;;;;;;5036531;28;20089;-67
2022/08/16 10:44:31;;;;;;;12.45;9.23;;;28.20;70.60;;;;;;5019019;28;20392;-67
2022/08/16 10:46:57;;;;;;;10.85;9.75;;;28.30;71.00;;;;;;5018459;28;20132;-67
2022/08/16 10:49:23;;;;;;;12.30;9.05;;;28.30;71.20;;;;;;5035983;28;20064;-67
2022/08/16 10:51:49;;;;;;;11.15;9.23;;;28.30;71.20;;;;;;5036327;28;20054;-67
2022/08/16 10:54:15;;;;;;;15.70;9.90;;;28.30;71.40;;;;;;5036290;28;20064;-67
2022/08/16 10:56:42;;;;;;;17.15;9.32;;;28.40;71.60;;;;;;5036517;28;20045;-67
2022/08/16 10:59:09;;;;;;;14.00;10.38;;;28.40;71.40;;;;;;5036162;28;20054;-67
2022/08/16 11:01:35;;;;;;;17.67;10.20;;;28.40;71.50;;;;;;5036017;28;20113;-67
2022/08/16 11:04:01;;;;;;;14.70;10.75;;;28.40;71.00;;;;;;5036701;28;20493;-67
2022/08/16 11:06:28;;;;;;;18.05;10.20;;;28.40;70.90;;;;;;5035979;28;20056;-68
2022/08/16 11:08:54;;;;;;;13.70;12.15;;;28.30;70.40;;;;;;5034938;28;20045;-67
2022/08/16 11:11:21;;;;;;;17.48;11.13;;;28.30;71.00;;;;;;5035969;28;20076;-67
2022/08/16 11:13:47;;;;;;;14.32;12.90;;;28.20;71.50;;;;;;5035950;28;20471;-67
2022/08/16 11:16:13;;;;;;;18.33;13.98;;;28.20;72.40;;;;;;5035918;28;20046;-67
2022/08/16 11:18:39;;;;;;;16.50;13.57;;;28.20;73.20;;;;;;5036370;28;20390;-67
2022/08/16 11:21:06;;;;;;;15.98;14.05;;;28.20;74.40;;;;;;5035756;28;20501;-67
2022/08/16 11:23:31;;;;;;;18.15;14.82;;;28.20;74.40;;;;;;5018181;28;20053;-67
2022/08/16 11:25:58;;;;;;;19.58;15.68;;;28.20;75.70;;;;;;5036260;28;20420;-67
2022/08/16 11:28:24;;;;;;;17.58;15.77;;;28.20;77.00;;;;;;5017970;28;20041;-67
2022/08/16 11:30:50;;;;;;;18.63;15.13;;;28.20;77.00;;;;;;5035619;28;20038;-67
2022/08/16 11:33:16;;;;;;;20.38;16.13;;;28.20;78.60;;;;;;5035567;28;20045;-67
2022/08/16 11:35:41;;;;;;;20.65;14.93;;;28.30;78.90;;;;;;5017773;28;20041;-67
2022/08/16 11:38:13;;;;;;;19.17;14.95;;;28.30;79.00;;;;;;5035444;28;20068;-67
2022/08/16 11:40:51;;;;;;;19.15;16.30;;;28.40;79.80;;;;;;5035426;28;20144;-67
2022/08/16 11:43:22;;;;;;;18.05;14.65;;;28.40;80.20;;;;;;5035057;28;20046;-68
2022/08/16 11:45:49;;;;;;;18.75;16.67;;;28.50;81.00;;;;;;5035736;28;20107;-68
2022/08/16 11:48:15;;;;;;;20.58;16.17;;;28.50;81.20;;;;;;5035230;28;20547;-68
2022/08/16 11:50:42;;;;;;;18.95;13.77;;;28.50;80.20;;;;;;5035984;28;20045;-68
2022/08/16 11:53:09;;;;;;;17.08;14.70;;;28.50;79.60;;;;;;5035645;28;20142;-68
2022/08/16 11:55:36;;;;;;;19.07;15.50;;;28.50;80.00;;;;;;5035354;28;20448;-68
2022/08/16 11:58:03;;;;;;;22.00;19.65;;;28.50;79.80;;;;;;5035094;28;20481;-68
2022/08/16 12:00:31;;;;;;;19.98;18.08;;;28.40;80.70;;;;;;5034866;28;20042;-68
2022/08/16 12:02:57;;;;;;;24.42;18.65;;;28.30;82.30;;;;;;5034663;28;20497;-68
2022/08/16 12:05:23;;;;;;;18.83;16.88;;;28.30;82.60;;;;;;5017209;28;20075;-68
2022/08/16 12:07:49;;;;;;;20.23;17.05;;;28.20;83.10;;;;;;5034923;28;20171;-68
2022/08/16 12:10:17;;;;;;;21.60;19.33;;;28.10;83.20;;;;;;5035609;28;20103;-68
2022/08/16 12:12:44;;;;;;;18.83;16.90;;;28.10;84.30;;;;;;5034805;28;20057;-68
2022/08/16 12:15:11;;;;;;;16.77;14.95;;;28.10;84.90;;;;;;5034992;28;20103;-68
2022/08/16 12:17:38;;;;;;;18.17;16.20;;;28.20;84.80;;;;;;5017234;28;20087;-68
2022/08/16 12:20:08;;;;;;;19.80;14.77;;;28.20;85.10;;;;;;5034393;28;20041;-68
2022/08/16 12:22:35;;;;;;;25.58;16.73;;;28.20;84.70;;;;;;5034549;28;20041;-68
2022/08/16 12:25:03;;;;;;;19.37;16.20;;;28.30;84.70;;;;;;5034596;28;20049;-68
2022/08/16 12:27:30;;;;;;;17.47;15.67;;;28.30;84.50;;;;;;5034423;28;20061;-68
2022/08/16 12:29:56;;;;;;;17.50;14.83;;;28.30;84.40;;;;;;5017375;28;20452;-68